Time;durP1;ratioP1;P1;durP2;ratioP2;P2;SDS_P1;SDS_P2;PMS_P1;PMS_P2;Temp;Humidity;BMP_temperature;BMP_pressure;BME280_temperature;BME280_humidity;BME280_pressure;Samples;Min_cycle;Max_cycle;Signal;HPM_P1;HPM_P2
2021/10/10 00:02:22;;;;;;;2.00;1.67;;;20.50;52.00;;;;;;4967246;28;20660;-48
2021/10/10 00:04:52;;;;;;;2.08;1.75;;;20.50;52.00;;;;;;4988997;23;20253;-59
2021/10/10 00:07:25;;;;;;;2.83;1.52;;;20.50;51.90;;;;;;5010243;28;20731;-60
2021/10/10 00:09:55;;;;;;;2.05;1.35;;;20.50;51.90;;;;;;5005032;28;20256;-61
2021/10/10 00:12:26;;;;;;;1.85;1.60;;;20.50;51.90;;;;;;4999545;28;20276;-59
2021/10/10 00:14:56;;;;;;;3.30;1.63;;;20.60;52.00;;;;;;4974204;28;20230;-60
2021/10/10 00:17:27;;;;;;;2.05;1.60;;;20.60;51.90;;;;;;4979465;28;20253;-57
2021/10/10 00:19:58;;;;;;;1.52;1.40;;;20.60;51.90;;;;;;4977784;28;20288;-61
2021/10/10 00:22:30;;;;;;;2.00;1.60;;;20.70;51.90;;;;;;4976224;28;20252;-61
2021/10/10 00:25:01;;;;;;;2.08;1.40;;;20.70;51.90;;;;;;4983069;28;20233;-61
2021/10/10 00:27:31;;;;;;;1.85;1.52;;;20.70;51.90;;;;;;4989327;28;20711;-61
2021/10/10 00:30:02;;;;;;;1.70;1.40;;;20.80;51.90;;;;;;4976648;28;20257;-61
2021/10/10 00:32:33;;;;;;;2.25;1.70;;;20.80;51.80;;;;;;4980474;28;20657;-61
2021/10/10 00:35:03;;;;;;;1.70;1.25;;;20.80;51.80;;;;;;4978145;28;20294;-61
2021/10/10 00:37:36;;;;;;;1.55;1.45;;;20.80;51.80;;;;;;4981491;28;20229;-60
2021/10/10 00:40:06;;;;;;;1.88;1.63;;;20.80;51.80;;;;;;4979538;28;20225;-60
2021/10/10 00:42:37;;;;;;;1.52;1.33;;;20.90;51.70;;;;;;4982536;28;20252;-61
2021/10/10 00:45:08;;;;;;;1.52;1.42;;;20.90;51.70;;;;;;4985507;28;20758;-61
2021/10/10 00:47:40;;;;;;;1.60;1.38;;;20.90;51.90;;;;;;4985567;28;20295;-61
2021/10/10 00:50:11;;;;;;;1.85;1.60;;;20.90;51.70;;;;;;4989656;28;20221;-60
2021/10/10 00:52:45;;;;;;;1.95;1.58;;;21.00;51.80;;;;;;4984115;28;20296;-61
2021/10/10 00:55:16;;;;;;;2.22;1.52;;;21.00;51.80;;;;;;4986991;28;20642;-61
2021/10/10 00:57:49;;;;;;;1.33;1.23;;;21.00;51.70;;;;;;4990480;28;20609;-61
2021/10/10 01:00:20;;;;;;;1.95;1.40;;;21.10;51.70;;;;;;4984448;28;20207;-60
2021/10/10 01:02:56;;;;;;;1.80;1.60;;;21.10;51.60;;;;;;4987951;28;20636;-56
2021/10/10 01:05:28;;;;;;;1.95;1.50;;;21.10;51.50;;;;;;5010566;23;20558;-56
2021/10/10 01:08:01;;;;;;;1.35;1.25;;;21.10;51.40;;;;;;4980704;28;20202;-56
2021/10/10 01:10:31;;;;;;;2.28;1.40;;;21.20;51.40;;;;;;4981718;28;20269;-52
2021/10/10 01:13:02;;;;;;;1.65;1.30;;;21.20;51.30;;;;;;4987970;28;20264;-56
2021/10/10 01:15:33;;;;;;;1.50;1.40;;;21.20;51.30;;;;;;4981348;28;20288;-56
2021/10/10 01:18:04;;;;;;;1.40;1.30;;;21.20;51.20;;;;;;4989494;28;20237;-51
2021/10/10 01:20:45;;;;;;;2.38;1.35;;;21.20;51.20;;;;;;4986908;28;20695;-56
2021/10/10 01:23:16;;;;;;;1.90;1.40;;;21.30;51.20;;;;;;4981677;28;20222;-57
2021/10/10 01:25:47;;;;;;;1.58;1.30;;;21.30;51.00;;;;;;4973753;28;20288;-57
2021/10/10 01:28:17;;;;;;;2.10;1.20;;;21.30;51.00;;;;;;4986460;28;20728;-56
2021/10/10 01:30:48;;;;;;;2.33;1.45;;;21.30;50.90;;;;;;4982542;28;20281;-54
2021/10/10 01:33:19;;;;;;;2.25;1.40;;;21.40;51.50;;;;;;4974273;28;20264;-54
2021/10/10 01:35:51;;;;;;;1.20;1.10;;;21.40;51.00;;;;;;4984480;28;20236;-53
2021/10/10 01:38:22;;;;;;;1.65;1.30;;;21.40;50.90;;;;;;4985999;28;20290;-56
2021/10/10 01:40:52;;;;;;;1.50;1.30;;;21.40;51.00;;;;;;4988853;28;20190;-55
2021/10/10 01:43:23;;;;;;;1.60;1.50;;;21.40;50.90;;;;;;4978216;28;20237;-53
2021/10/10 01:45:53;;;;;;;1.65;1.52;;;21.50;50.90;;;;;;4976641;28;20243;-55
2021/10/10 01:48:24;;;;;;;1.35;1.23;;;21.50;50.80;;;;;;4988976;28;20233;-51
2021/10/10 01:50:56;;;;;;;2.17;1.50;;;21.50;50.70;;;;;;4984471;28;20665;-52
2021/10/10 01:53:27;;;;;;;1.33;1.15;;;21.50;50.50;;;;;;4987809;28;20336;-57
2021/10/10 01:55:57;;;;;;;2.40;1.20;;;21.60;50.50;;;;;;4986470;28;20735;-56
2021/10/10 01:58:28;;;;;;;1.30;1.20;;;21.60;50.50;;;;;;4980198;28;20286;-57
2021/10/10 02:00:58;;;;;;;1.45;1.30;;;21.60;50.30;;;;;;4973725;28;20276;-56
2021/10/10 02:03:29;;;;;;;1.40;1.13;;;21.60;50.30;;;;;;4989081;28;20300;-45
2021/10/10 02:06:01;;;;;;;1.45;1.20;;;21.60;50.20;;;;;;4987214;28;20238;-54
2021/10/10 02:08:32;;;;;;;1.30;1.20;;;21.70;50.10;;;;;;4977029;28;20194;-50
2021/10/10 02:11:02;;;;;;;1.55;1.45;;;21.70;50.70;;;;;;4987895;28;20735;-50
2021/10/10 02:13:33;;;;;;;1.30;1.17;;;21.70;50.10;;;;;;4989500;28;20882;-50
2021/10/10 02:16:03;;;;;;;1.40;1.30;;;21.70;50.00;;;;;;4993166;28;20272;-53
2021/10/10 02:18:33;;;;;;;1.55;1.40;;;21.80;50.00;;;;;;4981191;28;20248;-48
2021/10/10 02:21:06;;;;;;;1.65;1.55;;;21.80;50.00;;;;;;4978576;28;20197;-55
2021/10/10 02:23:36;;;;;;;1.73;1.38;;;21.80;50.00;;;;;;4992055;28;20301;-54
2021/10/10 02:26:07;;;;;;;1.20;1.10;;;21.80;50.50;;;;;;4985166;28;20280;-53
2021/10/10 02:28:37;;;;;;;1.42;1.33;;;21.80;49.80;;;;;;4988561;28;20240;-53
2021/10/10 02:31:08;;;;;;;3.50;1.15;;;21.90;49.80;;;;;;4990697;28;20236;-53
2021/10/10 02:33:38;;;;;;;1.40;1.30;;;21.90;49.70;;;;;;4985767;28;20499;-47
2021/10/10 02:36:11;;;;;;;1.20;1.00;;;22.00;49.70;;;;;;4979003;28;20277;-56
2021/10/10 02:38:41;;;;;;;1.20;1.05;;;22.00;49.60;;;;;;4988964;28;20197;-56
2021/10/10 02:41:12;;;;;;;1.85;1.30;;;22.00;49.50;;;;;;4984041;28;20234;-52
2021/10/10 02:43:42;;;;;;;1.15;1.05;;;22.00;49.40;;;;;;4975623;28;20257;-45
2021/10/10 02:46:13;;;;;;;1.40;1.17;;;22.00;49.30;;;;;;4980273;28;20311;-47
2021/10/10 02:48:43;;;;;;;1.48;1.17;;;22.10;49.30;;;;;;4980756;28;20238;-44
2021/10/10 02:51:15;;;;;;;1.10;1.00;;;22.10;49.30;;;;;;4993475;28;20233;-45
2021/10/10 02:53:46;;;;;;;1.50;1.20;;;22.10;49.40;;;;;;4986941;28;20300;-49
2021/10/10 02:56:16;;;;;;;1.10;1.10;;;22.10;49.40;;;;;;4988657;28;20373;-46
2021/10/10 02:58:47;;;;;;;1.50;1.38;;;22.20;49.20;;;;;;4991462;28;20233;-46
2021/10/10 03:01:18;;;;;;;1.00;0.90;;;22.20;49.10;;;;;;4985734;28;20687;-45
2021/10/10 03:03:48;;;;;;;1.23;1.13;;;22.20;49.10;;;;;;4987354;28;20261;-47
2021/10/10 03:06:21;;;;;;;1.15;1.02;;;22.20;49.00;;;;;;4992661;28;20248;-49
2021/10/10 03:08:52;;;;;;;1.27;1.15;;;22.30;49.00;;;;;;4984041;28;20579;-48
2021/10/10 03:11:22;;;;;;;1.40;1.30;;;22.30;49.00;;;;;;4988192;28;20354;-44
2021/10/10 03:13:53;;;;;;;1.48;1.13;;;22.30;49.00;;;;;;4977708;28;20253;-40
2021/10/10 03:16:23;;;;;;;0.90;0.88;;;22.30;49.00;;;;;;4982336;28;20257;-47
2021/10/10 03:18:54;;;;;;;1.30;1.10;;;22.40;49.00;;;;;;4976286;28;20248;-47
2021/10/10 03:21:26;;;;;;;2.20;1.08;;;22.40;48.90;;;;;;4988696;28;20229;-52
2021/10/10 03:23:56;;;;;;;1.52;0.90;;;22.40;48.90;;;;;;4985298;28;20277;-44
2021/10/10 03:26:27;;;;;;;1.30;1.20;;;22.50;48.80;;;;;;4992426;28;20240;-46
2021/10/10 03:28:58;;;;;;;1.17;1.08;;;22.50;48.70;;;;;;4986791;28;20244;-46
2021/10/10 03:31:28;;;;;;;1.15;1.08;;;22.50;48.70;;;;;;4985467;28;20236;-45
2021/10/10 03:33:58;;;;;;;1.35;1.10;;;22.50;48.80;;;;;;4980785;28;20292;-51
2021/10/10 03:36:31;;;;;;;1.52;1.00;;;22.60;48.80;;;;;;4984926;28;20257;-50
2021/10/10 03:39:01;;;;;;;1.15;1.00;;;22.60;48.80;;;;;;4988501;28;20253;-49
2021/10/10 03:41:32;;;;;;;3.97;1.48;;;22.60;48.90;;;;;;4990248;28;20202;-50
2021/10/10 03:44:02;;;;;;;1.10;1.00;;;22.60;48.70;;;;;;4985293;28;20277;-50
2021/10/10 03:46:33;;;;;;;1.20;1.10;;;22.70;48.60;;;;;;4986626;28;20660;-45
2021/10/10 03:49:03;;;;;;;1.38;1.08;;;22.60;48.40;;;;;;4988469;28;20229;-50
2021/10/10 03:51:36;;;;;;;1.80;0.98;;;22.70;48.60;;;;;;4983488;28;20617;-53
2021/10/10 03:54:50;;;;;;;1.98;1.00;;;22.70;48.60;;;;;;4975821;28;20233;-47
2021/10/10 03:57:20;;;;;;;1.33;1.23;;;22.70;48.70;;;;;;4991066;28;20225;-48
2021/10/10 03:59:54;;;;;;;3.17;1.10;;;22.80;48.80;;;;;;4983382;28;20200;-52
2021/10/10 04:02:25;;;;;;;1.88;1.08;;;22.80;48.80;;;;;;4987223;28;20311;-52
2021/10/10 04:04:56;;;;;;;2.13;1.20;;;22.80;48.90;;;;;;4975086;28;20732;-52
2021/10/10 04:07:28;;;;;;;2.00;1.10;;;22.80;48.90;;;;;;4985077;28;20197;-56
2021/10/10 04:09:59;;;;;;;1.08;0.95;;;22.80;48.80;;;;;;4988051;28;20237;-48
2021/10/10 04:12:29;;;;;;;2.42;1.10;;;22.80;48.80;;;;;;4987953;28;20300;-46
2021/10/10 04:15:00;;;;;;;1.50;1.13;;;22.90;48.80;;;;;;4983891;28;20285;-43
2021/10/10 04:17:30;;;;;;;2.63;1.17;;;22.90;48.60;;;;;;4989956;28;20312;-47
2021/10/10 04:20:00;;;;;;;2.05;1.00;;;22.90;48.60;;;;;;4985968;28;20240;-52
2021/10/10 04:22:33;;;;;;;1.33;0.95;;;22.90;48.50;;;;;;4984803;28;20779;-47
2021/10/10 04:25:03;;;;;;;1.83;1.00;;;22.90;48.40;;;;;;4976616;28;20236;-54
2021/10/10 04:27:35;;;;;;;1.65;0.90;;;22.90;48.50;;;;;;4977605;28;20233;-55
2021/10/10 04:30:08;;;;;;;1.05;1.05;;;22.90;48.40;;;;;;4978414;28;20213;-56
2021/10/10 04:32:38;;;;;;;0.80;0.80;;;22.90;48.30;;;;;;4988657;28;20587;-50
2021/10/10 04:35:10;;;;;;;0.95;0.68;;;22.90;48.30;;;;;;4977635;28;20233;-49
2021/10/10 04:37:42;;;;;;;0.93;0.77;;;22.90;48.10;;;;;;4975828;28;20708;-50
2021/10/10 04:40:13;;;;;;;1.50;1.00;;;22.90;48.20;;;;;;4973723;28;20194;-53
2021/10/10 04:42:44;;;;;;;1.40;1.13;;;22.90;48.20;;;;;;4978891;28;20724;-50
2021/10/10 04:45:14;;;;;;;1.33;1.00;;;23.00;48.30;;;;;;4977652;28;20251;-56
2021/10/10 04:47:45;;;;;;;2.58;0.90;;;23.00;48.20;;;;;;4974855;28;20681;-54
2021/10/10 04:50:15;;;;;;;0.93;0.70;;;23.00;48.20;;;;;;4982445;28;20272;-53
2021/10/10 04:52:47;;;;;;;1.40;0.77;;;23.00;48.20;;;;;;4989109;28;20363;-52
2021/10/10 04:55:18;;;;;;;0.95;0.80;;;23.00;48.10;;;;;;4986816;28;20831;-56
2021/10/10 04:57:48;;;;;;;1.05;0.93;;;23.00;48.20;;;;;;4983208;28;20274;-47
2021/10/10 05:00:19;;;;;;;1.15;0.80;;;23.00;48.00;;;;;;4986975;28;20229;-49
2021/10/10 05:02:49;;;;;;;1.75;0.88;;;23.00;48.00;;;;;;4987035;28;20288;-56
2021/10/10 05:05:20;;;;;;;1.00;0.85;;;23.00;48.00;;;;;;4983467;28;20234;-51
2021/10/10 05:07:52;;;;;;;1.48;0.90;;;23.00;48.00;;;;;;4989085;28;20252;-47
2021/10/10 05:10:23;;;;;;;2.17;0.88;;;23.00;47.90;;;;;;4983826;28;20225;-50
2021/10/10 05:12:53;;;;;;;1.67;0.93;;;23.00;48.60;;;;;;4985205;28;20650;-54
2021/10/10 05:15:24;;;;;;;1.20;0.77;;;23.00;47.90;;;;;;4972875;28;20290;-55
2021/10/10 05:17:54;;;;;;;1.20;0.63;;;23.00;47.90;;;;;;4977878;28;20257;-47
2021/10/10 05:20:25;;;;;;;2.50;0.82;;;23.00;47.90;;;;;;4977786;28;20229;-54
2021/10/10 05:22:57;;;;;;;0.70;0.70;;;23.00;47.90;;;;;;4988421;28;20284;-55
2021/10/10 05:25:28;;;;;;;1.48;0.90;;;23.00;47.90;;;;;;4978846;28;20233;-47
2021/10/10 05:27:58;;;;;;;0.98;0.70;;;23.00;47.90;;;;;;4986774;28;20236;-46
2021/10/10 05:30:29;;;;;;;2.70;0.80;;;23.00;47.90;;;;;;4980724;28;20633;-50
2021/10/10 05:32:59;;;;;;;2.67;0.60;;;23.00;47.90;;;;;;4981099;28;20317;-52
2021/10/10 05:35:30;;;;;;;1.33;0.77;;;23.00;47.90;;;;;;4987986;28;20282;-42
2021/10/10 05:38:02;;;;;;;3.38;0.82;;;23.00;48.00;;;;;;4988348;28;20648;-43
2021/10/10 05:40:33;;;;;;;1.35;1.10;;;23.00;48.00;;;;;;4984630;28;20238;-50
2021/10/10 05:43:04;;;;;;;2.90;0.82;;;23.00;48.00;;;;;;4991310;28;20253;-52
2021/10/10 05:45:34;;;;;;;2.67;1.13;;;22.90;47.90;;;;;;4981378;28;20650;-49
2021/10/10 05:48:05;;;;;;;2.40;0.98;;;22.90;47.90;;;;;;4981947;28;20241;-54
2021/10/10 05:50:35;;;;;;;1.92;0.98;;;22.90;47.90;;;;;;4977645;28;20288;-55
2021/10/10 05:53:08;;;;;;;4.13;1.20;;;22.90;47.90;;;;;;4986278;28;20244;-47
2021/10/10 05:55:40;;;;;;;1.90;1.10;;;22.90;48.10;;;;;;4988423;28;20198;-45
2021/10/10 05:58:16;;;;;;;2.03;1.23;;;22.90;48.00;;;;;;4993420;28;20229;-48
2021/10/10 06:00:46;;;;;;;3.85;1.60;;;22.90;48.10;;;;;;4980721;28;20557;-46
2021/10/10 06:03:17;;;;;;;3.65;1.50;;;22.90;48.20;;;;;;4980795;28;20308;-43
2021/10/10 06:05:47;;;;;;;3.50;1.42;;;22.90;48.20;;;;;;4992559;28;20212;-46
2021/10/10 06:08:20;;;;;;;3.17;1.50;;;22.80;48.20;;;;;;4987250;28;20267;-52
2021/10/10 06:10:50;;;;;;;3.08;1.27;;;22.80;48.30;;;;;;4991467;28;20216;-53
2021/10/10 06:13:21;;;;;;;2.17;1.45;;;22.80;48.20;;;;;;4987056;28;20748;-43
2021/10/10 06:15:52;;;;;;;5.00;1.80;;;22.80;48.90;;;;;;4972506;28;20230;-47
2021/10/10 06:18:22;;;;;;;2.78;1.77;;;22.80;48.30;;;;;;4991718;28;20315;-44
2021/10/10 06:20:53;;;;;;;4.38;2.40;;;22.70;48.30;;;;;;4984388;28;20301;-46
2021/10/10 06:23:25;;;;;;;3.92;1.63;;;22.70;48.40;;;;;;4985265;28;20685;-46
2021/10/10 06:25:56;;;;;;;2.97;1.83;;;22.70;48.60;;;;;;4976205;28;20285;-55
2021/10/10 06:28:26;;;;;;;6.57;2.13;;;22.70;48.70;;;;;;4987071;28;20289;-54
2021/10/10 06:30:57;;;;;;;3.58;1.70;;;22.70;48.90;;;;;;4981349;28;20331;-45
2021/10/10 06:33:27;;;;;;;3.03;1.77;;;22.60;48.80;;;;;;4980879;28;20268;-53
2021/10/10 06:35:58;;;;;;;4.43;1.70;;;22.60;48.80;;;;;;4980055;28;20293;-55
2021/10/10 06:38:30;;;;;;;3.63;1.73;;;22.60;48.80;;;;;;4985016;28;20253;-50
2021/10/10 06:41:00;;;;;;;2.75;1.52;;;22.60;48.90;;;;;;4975799;28;20252;-53
2021/10/10 06:43:31;;;;;;;3.15;1.75;;;22.50;48.80;;;;;;4979925;28;20777;-45
2021/10/10 06:46:01;;;;;;;4.68;1.80;;;22.50;48.90;;;;;;4988641;28;20233;-53
2021/10/10 06:48:32;;;;;;;2.53;1.50;;;22.50;48.90;;;;;;4976439;28;20286;-45
2021/10/10 06:51:02;;;;;;;3.47;1.80;;;22.40;48.90;;;;;;4981090;28;20241;-52
2021/10/10 06:53:35;;;;;;;2.58;1.38;;;22.40;48.90;;;;;;4972863;28;20312;-44
2021/10/10 06:56:06;;;;;;;4.40;1.67;;;22.40;49.00;;;;;;4987294;28;20233;-52
2021/10/10 06:58:36;;;;;;;2.50;1.48;;;22.40;49.00;;;;;;4983575;28;20222;-46
2021/10/10 07:01:07;;;;;;;3.13;1.55;;;22.30;48.90;;;;;;4988111;28;20703;-48
2021/10/10 07:03:38;;;;;;;3.60;1.60;;;22.30;49.00;;;;;;4983215;28;20241;-48
2021/10/10 07:06:09;;;;;;;2.75;1.40;;;22.30;49.00;;;;;;4983203;28;20297;-46
2021/10/10 07:08:41;;;;;;;3.53;1.67;;;22.30;49.00;;;;;;4989865;28;20236;-44
2021/10/10 07:11:12;;;;;;;2.70;1.50;;;22.30;49.00;;;;;;4970306;28;20288;-49
2021/10/10 07:13:43;;;;;;;4.38;1.38;;;22.20;49.60;;;;;;4977857;28;20285;-48
2021/10/10 07:16:14;;;;;;;3.85;1.60;;;22.20;48.90;;;;;;4973290;28;20216;-50
2021/10/10 07:18:47;;;;;;;2.05;1.48;;;22.20;49.10;;;;;;4978120;28;20261;-54
2021/10/10 07:26:49;;;;;;;2.17;1.48;;;22.10;49.00;;;;;;4979118;28;20283;-49
2021/10/10 07:29:20;;;;;;;2.05;1.48;;;22.00;49.00;;;;;;4980245;28;20296;-42
2021/10/10 07:31:51;;;;;;;1.65;1.30;;;22.00;49.10;;;;;;4973161;28;20293;-50
2021/10/10 07:34:21;;;;;;;2.40;1.30;;;21.90;49.10;;;;;;4986044;28;20190;-55
2021/10/10 07:36:52;;;;;;;2.70;1.40;;;21.90;49.20;;;;;;4980288;28;20277;-50
2021/10/10 07:39:24;;;;;;;1.77;1.20;;;21.90;49.20;;;;;;4971403;28;20321;-49
2021/10/10 07:41:55;;;;;;;2.55;1.23;;;21.80;49.20;;;;;;4972353;28;20233;-52
2021/10/10 07:44:29;;;;;;;3.65;1.30;;;21.80;49.20;;;;;;4972225;28;20221;-52
2021/10/10 07:47:15;;;;;;;2.17;1.20;;;21.80;49.20;;;;;;4975393;28;20290;-40
2021/10/10 07:49:48;;;;;;;1.52;1.20;;;21.80;49.40;;;;;;4976515;28;20986;-47
2021/10/10 07:52:19;;;;;;;4.65;1.70;;;21.70;49.20;;;;;;4986014;28;20218;-47
2021/10/10 07:54:51;;;;;;;4.18;1.10;;;21.70;49.30;;;;;;4983241;28;20208;-55
2021/10/10 07:57:23;;;;;;;2.38;1.48;;;21.70;49.30;;;;;;4986593;28;20284;-51
2021/10/10 07:59:54;;;;;;;2.72;1.40;;;21.70;49.30;;;;;;4971024;28;20257;-53
2021/10/10 08:02:26;;;;;;;2.13;1.30;;;21.60;49.40;;;;;;4979177;28;20306;-55
2021/10/10 08:04:57;;;;;;;2.78;1.73;;;21.60;49.40;;;;;;4983964;28;20725;-53
2021/10/10 08:07:27;;;;;;;4.38;1.67;;;21.60;49.40;;;;;;4976591;28;20226;-52
2021/10/10 08:10:00;;;;;;;2.28;1.60;;;21.60;49.40;;;;;;4975947;28;20320;-48
2021/10/10 08:12:30;;;;;;;2.88;1.80;;;21.50;49.40;;;;;;4975712;28;20572;-52
2021/10/10 08:15:01;;;;;;;2.85;1.65;;;21.50;50.10;;;;;;4978364;28;20229;-52
2021/10/10 08:17:31;;;;;;;3.13;1.50;;;21.40;49.40;;;;;;4984334;28;20237;-49
2021/10/10 08:20:02;;;;;;;3.50;1.80;;;21.40;49.40;;;;;;4969550;28;20313;-41
2021/10/10 08:22:34;;;;;;;3.20;1.73;;;21.40;49.50;;;;;;4976692;28;20257;-49
2021/10/10 08:25:09;;;;;;;2.00;1.48;;;21.40;49.50;;;;;;4981027;28;20292;-52
2021/10/10 08:27:40;;;;;;;3.45;1.63;;;21.40;49.50;;;;;;4981160;28;20200;-42
2021/10/10 08:30:12;;;;;;;2.90;1.50;;;21.30;49.50;;;;;;4977226;28;20289;-49
2021/10/10 08:32:43;;;;;;;1.73;1.40;;;21.30;49.50;;;;;;4974513;28;20225;-47
2021/10/10 08:35:14;;;;;;;2.00;1.42;;;21.30;49.50;;;;;;4973161;28;20205;-51
2021/10/10 08:37:45;;;;;;;2.85;1.92;;;21.30;49.50;;;;;;4980181;28;20285;-47
2021/10/10 08:40:19;;;;;;;1.77;1.38;;;21.30;49.50;;;;;;4973805;28;20288;-48
2021/10/10 08:42:52;;;;;;;2.40;1.73;;;21.20;49.50;;;;;;4975160;28;20276;-48
2021/10/10 08:45:25;;;;;;;2.17;1.70;;;21.20;49.50;;;;;;4977416;28;20368;-49
2021/10/10 08:47:57;;;;;;;3.00;1.65;;;21.20;49.50;;;;;;4985849;28;20210;-50
2021/10/10 08:50:29;;;;;;;1.90;1.58;;;21.10;49.50;;;;;;4973265;28;20284;-52
2021/10/10 08:53:01;;;;;;;1.77;1.52;;;21.10;49.50;;;;;;4976652;28;20218;-49
2021/10/10 08:55:34;;;;;;;2.10;1.42;;;21.10;49.60;;;;;;4989036;28;20281;-50
2021/10/10 08:58:08;;;;;;;2.55;1.60;;;21.00;49.50;;;;;;4970832;28;20199;-50
2021/10/10 09:00:46;;;;;;;3.05;1.55;;;21.00;49.50;;;;;;4975732;28;20301;-49
2021/10/10 09:03:18;;;;;;;2.03;1.58;;;21.00;49.50;;;;;;4977948;28;20222;-51
2021/10/10 10:05:31;;;;;;;1.40;1.20;;;20.30;49.60;;;;;;5714891;23;20225;-47
2021/10/10 10:10:37;;;;;;;2.10;1.30;;;20.30;49.60;;;;;;5181252;23;20231;-58
2021/10/10 10:13:09;;;;;;;1.45;1.05;;;20.20;49.60;;;;;;4954687;28;20226;-52
2021/10/10 10:15:39;;;;;;;1.65;1.13;;;20.20;49.60;;;;;;4958044;28;20199;-58
2021/10/10 10:18:10;;;;;;;1.48;1.13;;;20.10;49.60;;;;;;4962162;28;20234;-57
2021/10/10 10:20:43;;;;;;;3.00;1.05;;;20.10;49.60;;;;;;4955494;28;20308;-52
2021/10/10 10:23:14;;;;;;;1.75;1.20;;;20.10;49.70;;;;;;4961273;28;20211;-59
2021/10/10 10:25:44;;;;;;;2.38;1.25;;;20.10;49.70;;;;;;4965484;28;20737;-56
2021/10/10 10:28:15;;;;;;;1.63;1.10;;;20.00;49.70;;;;;;4961236;28;20285;-59
2021/10/10 10:30:46;;;;;;;2.00;1.15;;;20.00;49.70;;;;;;4971059;28;20246;-56
2021/10/10 10:33:18;;;;;;;1.23;1.05;;;19.90;49.70;;;;;;4958008;28;20285;-56
2021/10/10 10:35:50;;;;;;;2.55;1.13;;;19.90;50.30;;;;;;4959295;28;20199;-59
2021/10/10 10:38:20;;;;;;;1.67;1.23;;;19.90;50.30;;;;;;4973387;28;20244;-58
2021/10/10 10:40:51;;;;;;;1.00;0.90;;;19.90;49.70;;;;;;4974739;28;20230;-57
2021/10/10 10:43:37;;;;;;;2.05;1.10;;;19.90;49.70;;;;;;4959016;28;20701;-61
2021/10/10 10:46:10;;;;;;;2.15;1.55;;;19.80;49.70;;;;;;4957351;28;20195;-54
2021/10/10 10:48:40;;;;;;;1.80;1.48;;;19.80;49.70;;;;;;4973357;28;20327;-59
2021/10/10 10:51:26;;;;;;;2.00;1.50;;;19.80;49.80;;;;;;4973331;28;20237;-59
2021/10/10 10:54:17;;;;;;;1.55;1.30;;;19.70;49.70;;;;;;4956265;28;20218;-58
2021/10/10 10:56:47;;;;;;;3.00;1.58;;;19.70;49.80;;;;;;4972707;28;20234;-57
2021/10/10 10:59:19;;;;;;;1.42;1.30;;;19.60;49.70;;;;;;4973083;28;20258;-57
2021/10/10 11:02:04;;;;;;;1.88;1.40;;;19.60;49.80;;;;;;4957037;28;20286;-59
2021/10/10 11:04:34;;;;;;;1.90;1.48;;;19.60;49.80;;;;;;4972011;28;20249;-59
2021/10/10 11:07:12;;;;;;;1.70;1.40;;;19.60;49.90;;;;;;4972430;28;20234;-58
2021/10/10 11:09:48;;;;;;;1.83;1.30;;;19.60;49.90;;;;;;4959174;28;20268;-59
2021/10/10 11:12:31;;;;;;;2.20;1.40;;;19.50;49.80;;;;;;4968403;28;20237;-58
2021/10/10 11:15:13;;;;;;;1.77;1.40;;;19.50;49.80;;;;;;4958343;28;20199;-59
2021/10/10 11:17:55;;;;;;;2.50;1.40;;;19.50;49.90;;;;;;4958856;28;20296;-58
2021/10/10 11:20:26;;;;;;;2.55;1.40;;;19.40;49.80;;;;;;4957706;28;20593;-58
2021/10/10 11:22:58;;;;;;;1.40;1.30;;;19.40;49.80;;;;;;4968584;28;20255;-53
2021/10/10 11:25:33;;;;;;;1.65;1.30;;;19.40;49.90;;;;;;4970267;28;20245;-57
2021/10/10 11:28:03;;;;;;;1.60;1.40;;;19.40;49.90;;;;;;4971354;28;20689;-60
2021/10/10 11:30:34;;;;;;;1.70;1.15;;;19.40;49.90;;;;;;4968990;28;20389;-60
2021/10/10 11:33:04;;;;;;;1.90;1.42;;;19.30;50.00;;;;;;4970344;28;20688;-52
2021/10/10 11:35:35;;;;;;;2.20;1.40;;;19.30;49.90;;;;;;4972552;28;20288;-60
2021/10/10 11:38:10;;;;;;;1.67;1.25;;;19.30;50.00;;;;;;4971201;28;20210;-60
2021/10/10 11:40:42;;;;;;;1.35;1.02;;;19.20;50.00;;;;;;4971142;28;20236;-57
2021/10/10 11:43:13;;;;;;;1.80;1.20;;;19.20;50.00;;;;;;4972446;28;20206;-61
2021/10/10 11:45:43;;;;;;;1.23;1.10;;;19.20;50.00;;;;;;4973118;28;20233;-54
2021/10/10 11:48:14;;;;;;;1.63;1.23;;;19.20;50.00;;;;;;4973512;28;20237;-55
2021/10/10 11:50:45;;;;;;;1.58;1.27;;;19.10;50.00;;;;;;4954026;28;20649;-59
2021/10/10 11:53:17;;;;;;;1.83;1.23;;;19.10;50.00;;;;;;4955967;28;20230;-60
2021/10/10 11:55:47;;;;;;;1.90;1.50;;;19.10;50.00;;;;;;4971518;28;20233;-59
2021/10/10 11:58:24;;;;;;;1.27;1.17;;;19.00;50.00;;;;;;4959276;28;20235;-59
2021/10/10 12:00:55;;;;;;;1.40;1.10;;;19.00;50.00;;;;;;4966023;28;20225;-60
2021/10/10 12:03:26;;;;;;;1.55;1.10;;;19.00;50.00;;;;;;4961692;28;20289;-60
2021/10/10 12:05:57;;;;;;;1.88;1.40;;;19.00;50.10;;;;;;4966869;28;20233;-58
2021/10/10 12:08:32;;;;;;;1.15;0.95;;;18.90;50.00;;;;;;4971565;28;20607;-60
2021/10/10 12:11:12;;;;;;;1.15;1.05;;;18.90;50.00;;;;;;4993381;23;20212;-60
2021/10/10 12:13:56;;;;;;;1.75;1.23;;;18.90;50.10;;;;;;4990480;28;20236;-60
2021/10/10 12:16:26;;;;;;;1.10;1.00;;;18.90;50.10;;;;;;4990074;28;20728;-56
2021/10/10 12:19:00;;;;;;;1.52;1.23;;;18.80;50.10;;;;;;4988481;28;20304;-48
2021/10/10 12:21:32;;;;;;;1.45;1.00;;;18.80;50.10;;;;;;4974896;28;20709;-60
2021/10/10 12:24:13;;;;;;;1.30;1.20;;;18.80;50.10;;;;;;4987023;28;20209;-60
2021/10/10 12:26:52;;;;;;;1.33;1.00;;;18.80;50.10;;;;;;4988870;28;20543;-59
2021/10/10 12:29:29;;;;;;;1.98;1.05;;;18.70;50.10;;;;;;4986432;28;20257;-46
2021/10/10 12:32:20;;;;;;;1.25;1.02;;;18.70;50.10;;;;;;4976624;28;20234;-57
2021/10/10 12:34:51;;;;;;;1.15;1.00;;;18.70;50.10;;;;;;4991117;28;20551;-60
2021/10/10 12:37:22;;;;;;;1.88;1.23;;;18.60;50.00;;;;;;4989183;28;20296;-61
2021/10/10 12:39:55;;;;;;;1.92;1.10;;;18.60;50.10;;;;;;4989158;28;20320;-60
2021/10/10 12:42:25;;;;;;;1.45;1.13;;;18.60;50.10;;;;;;4989396;28;20680;-60
2021/10/10 12:45:10;;;;;;;1.30;1.13;;;18.60;50.10;;;;;;4984720;28;20286;-60
2021/10/10 12:47:40;;;;;;;1.33;1.00;;;18.50;50.10;;;;;;4981551;28;20209;-60
2021/10/10 12:50:13;;;;;;;1.63;1.20;;;18.60;50.20;;;;;;4989210;28;20256;-60
2021/10/10 12:52:44;;;;;;;1.17;1.00;;;18.50;50.20;;;;;;4990665;28;20233;-60
2021/10/10 12:55:27;;;;;;;1.38;1.10;;;18.50;50.20;;;;;;4989850;28;20285;-58
2021/10/10 12:57:58;;;;;;;1.20;0.90;;;18.40;50.20;;;;;;4990459;28;20236;-60
2021/10/10 13:00:30;;;;;;;1.35;1.10;;;18.40;50.20;;;;;;4989931;28;20261;-60
2021/10/10 13:03:01;;;;;;;1.75;0.95;;;18.40;50.20;;;;;;4989527;28;20221;-59
2021/10/10 13:05:34;;;;;;;1.27;1.08;;;18.40;50.20;;;;;;4988845;28;20248;-59
2021/10/10 13:08:06;;;;;;;1.10;1.00;;;18.30;50.20;;;;;;4988972;28;20288;-57
2021/10/10 13:10:39;;;;;;;1.30;1.00;;;18.30;50.10;;;;;;4989458;28;20265;-59
2021/10/10 13:13:09;;;;;;;1.50;1.30;;;18.30;50.10;;;;;;4985450;28;20240;-59
2021/10/10 13:15:39;;;;;;;1.20;1.10;;;18.30;50.10;;;;;;4987589;28;20708;-57
2021/10/10 13:18:10;;;;;;;1.33;1.13;;;18.30;50.10;;;;;;4990089;28;20634;-60
2021/10/10 13:20:40;;;;;;;1.40;0.90;;;18.20;50.70;;;;;;4973349;28;20317;-54
2021/10/10 13:23:11;;;;;;;1.30;0.90;;;18.20;50.10;;;;;;4976593;28;20237;-60
2021/10/10 13:25:43;;;;;;;1.35;1.10;;;18.20;50.10;;;;;;4989584;28;20233;-59
2021/10/10 13:28:14;;;;;;;1.17;1.08;;;18.20;50.20;;;;;;4988559;28;20201;-61
2021/10/10 13:30:45;;;;;;;1.50;1.00;;;18.10;50.10;;;;;;4986646;28;20312;-59
2021/10/10 13:33:15;;;;;;;1.23;0.98;;;18.20;50.20;;;;;;4988510;28;20204;-57
2021/10/10 13:35:46;;;;;;;1.15;1.05;;;18.10;50.20;;;;;;4988475;28;20328;-58
2021/10/10 13:38:16;;;;;;;1.38;1.00;;;18.10;50.20;;;;;;4988561;28;20320;-59
2021/10/10 13:40:49;;;;;;;1.33;1.00;;;18.10;50.20;;;;;;4988772;28;20657;-49
2021/10/10 13:43:19;;;;;;;1.08;0.98;;;18.00;50.20;;;;;;4990260;28;20280;-54
2021/10/10 13:45:55;;;;;;;0.95;0.82;;;18.00;50.20;;;;;;4990627;28;20237;-59
2021/10/10 13:48:26;;;;;;;1.38;1.17;;;18.00;50.20;;;;;;4989627;28;20293;-51
2021/10/10 13:50:57;;;;;;;1.00;0.90;;;18.00;50.20;;;;;;4989744;28;20724;-59
2021/10/10 13:53:29;;;;;;;1.90;1.00;;;17.90;50.20;;;;;;4988343;28;20240;-56
2021/10/10 13:56:01;;;;;;;1.13;1.00;;;17.90;50.20;;;;;;4983245;28;20302;-57
2021/10/10 13:58:32;;;;;;;0.93;0.70;;;17.90;50.20;;;;;;4981443;28;20229;-49
2021/10/10 14:01:02;;;;;;;1.23;1.13;;;17.90;50.20;;;;;;4992054;28;20308;-58
2021/10/10 14:03:33;;;;;;;0.73;0.73;;;17.90;50.20;;;;;;4981575;28;20226;-59
2021/10/10 14:06:03;;;;;;;1.13;0.98;;;17.90;50.20;;;;;;4992197;28;20297;-59
2021/10/10 14:08:39;;;;;;;1.25;1.05;;;17.80;50.20;;;;;;4994560;28;20229;-58
2021/10/10 14:11:11;;;;;;;1.38;1.00;;;17.80;50.20;;;;;;4993880;28;20743;-58
2021/10/10 14:13:42;;;;;;;1.65;0.98;;;17.80;50.20;;;;;;4993195;28;20284;-59
2021/10/10 14:16:13;;;;;;;1.27;0.77;;;17.80;50.30;;;;;;4993763;28;20201;-59
2021/10/10 14:18:44;;;;;;;1.10;1.00;;;17.70;50.30;;;;;;4991884;28;20304;-59
2021/10/10 14:21:14;;;;;;;0.93;0.90;;;17.70;50.30;;;;;;4991562;28;20763;-57